Embudo, NM

4:14 AM MDT on May 06, 2015 (GMT -0600)
Angel Fire | | Change Station
CLOSE
Current Station
Airport
Location: Angel Fire,
Elevation: 8379 ft
Nearby Weather Stations

Elev 8379 ft 36.42 °N, 105.29 °W | Updated 19 minutes ago

Overcast
Overcast
42 °F
Feels Like 36 °F
N
9
Wind Variable Wind from WSW
Gusts 17 mph

Today
High -- | Low -- °F
--% Chance of Precip.
Yesterday
High -- | Low -- °F
Precip. -- in
6:06 AM 7:55 PM
Waning Gibbous, 95% visible
Pressure 29.91 in
Visibility 10.0 miles
Clouds Mostly Cloudy 1900 ft
Mostly Cloudy 2500 ft
Overcast 3100 ft
Windchill 36 °F
Dew Point 37 °F
Humidity 83%
Rainfall 0.06 in
Snow Depth Not available.
UV 0 out of 12
Pollen 4.70 out of 12
Air Quality Not available.
Flu Activity Local Activity
METAR KAXX 060955Z AUTO 24008G15KT 10SM BKN019 BKN025 OVC031 05/03 A2991 RMK AO2 T00530027

More Conditions Fewer Conditions

Pressure 29.91 in
Visibility 10.0 miles
Clouds Mostly Cloudy 1900 ft
Mostly Cloudy 2500 ft
Overcast 3100 ft
Windchill 36 °F
Dew Point 37 °F
Humidity 83%
Rainfall 0.06 in
Snow Depth Not available.
UV 0 out of 12
Pollen 4.70 out of 12
Air Quality Not available.
Flu Activity Local Activity
METAR KAXX 060955Z AUTO 24008G15KT 10SM BKN019 BKN025 OVC031 05/03 A2991 RMK AO2 T00530027

More Conditions Fewer Conditions

10-Day Weather Forecast

Almanac

Astronomy

May. 06, 2015 Rise Set
Actual Time
Civil Twilight
Nautical Twilight
Astronomical Twilight
Moon
Length of Visible Light
Length of Day
Tomorrow will be .
, % of the Moon is Illuminated

Today's Extremes

State Highs State Lows

Community

WunderPhotos

Upload Photos

1,818,859 photos uploaded!

WunderBlogs® & News

Nearby

Air Quality

  Air Quality AQ Index Pollutant
Not available.

Snow Depth

Station Depth Elevation

Earthquake Activity

City Distance Mag. Time & Date
Minimum magnitude displayed is 2.5.

Coastal Water Temperatures

Place Temperature

Stations

Nearby Weather Stations

Station Location Temp. Windchill Dew Point Humidity Wind Precip. Elev Updated Type